sensor_id;sensor_type;location;lat;lon;timestamp;pressure;altitude;pressure_sealevel;temperature;humidity
64368;BME280;50692;53.314;-6.300;2023-07-16T00:00:07;99539.53;;;14.55;95.73
64368;BME280;50692;53.314;-6.300;2023-07-16T00:02:57;99549.34;;;14.54;95.76
64368;BME280;50692;53.314;-6.300;2023-07-16T00:05:43;99558.28;;;14.53;95.54
64368;BME280;50692;53.314;-6.300;2023-07-16T00:08:29;99548.97;;;14.38;95.68
64368;BME280;50692;53.314;-6.300;2023-07-16T00:11:15;99557.31;;;14.54;95.49
64368;BME280;50692;53.314;-6.300;2023-07-16T00:14:01;99559.34;;;14.41;95.43
64368;BME280;50692;53.314;-6.300;2023-07-16T00:16:48;99545.19;;;14.40;94.97
64368;BME280;50692;53.314;-6.300;2023-07-16T00:19:33;99574.38;;;14.52;94.87
64368;BME280;50692;53.314;-6.300;2023-07-16T00:22:19;99569.69;;;14.44;94.94
64368;BME280;50692;53.314;-6.300;2023-07-16T00:25:06;99587.78;;;14.50;94.92
64368;BME280;50692;53.314;-6.300;2023-07-16T00:27:56;99565.63;;;14.40;95.13
64368;BME280;50692;53.314;-6.300;2023-07-16T00:30:43;99573.31;;;14.43;94.88
64368;BME280;50692;53.314;-6.300;2023-07-16T00:33:28;99586.94;;;14.50;94.92
64368;BME280;50692;53.314;-6.300;2023-07-16T00:36:16;99596.03;;;14.47;94.74
64368;BME280;50692;53.314;-6.300;2023-07-16T00:39:03;99568.94;;;14.32;94.92
64368;BME280;50692;53.314;-6.300;2023-07-16T00:41:48;99565.13;;;14.25;94.80
64368;BME280;50692;53.314;-6.300;2023-07-16T00:44:36;99596.56;;;14.41;94.94
64368;BME280;50692;53.314;-6.300;2023-07-16T00:47:23;99601.53;;;14.34;94.89
64368;BME280;50692;53.314;-6.300;2023-07-16T00:50:12;99606.88;;;14.34;94.84
64368;BME280;50692;53.314;-6.300;2023-07-16T00:52:58;99611.09;;;14.37;94.55
64368;BME280;50692;53.314;-6.300;2023-07-16T00:55:45;99611.59;;;14.31;94.77
64368;BME280;50692;53.314;-6.300;2023-07-16T00:58:34;99600.72;;;14.34;94.45
64368;BME280;50692;53.314;-6.300;2023-07-16T01:01:20;99626.19;;;14.36;94.36
64368;BME280;50692;53.314;-6.300;2023-07-16T01:04:07;99625.31;;;14.36;94.48
64368;BME280;50692;53.314;-6.300;2023-07-16T01:06:58;99634.16;;;14.36;94.49
64368;BME280;50692;53.314;-6.300;2023-07-16T01:09:46;99603.25;;;14.14;94.34
64368;BME280;50692;53.314;-6.300;2023-07-16T01:12:32;99633.69;;;14.31;94.34
64368;BME280;50692;53.314;-6.300;2023-07-16T01:15:18;99653.03;;;14.33;94.53
64368;BME280;50692;53.314;-6.300;2023-07-16T01:18:05;99641.41;;;14.34;94.41
64368;BME280;50692;53.314;-6.300;2023-07-16T01:20:52;99641.50;;;14.23;94.44
64368;BME280;50692;53.314;-6.300;2023-07-16T01:29:49;99646.75;;;14.13;95.06
64368;BME280;50692;53.314;-6.300;2023-07-16T01:32:45;99675.56;;;14.18;95.36
64368;BME280;50692;53.314;-6.300;2023-07-16T01:35:33;99675.00;;;14.14;95.83
64368;BME280;50692;53.314;-6.300;2023-07-16T01:38:20;99667.41;;;14.10;95.81
64368;BME280;50692;53.314;-6.300;2023-07-16T01:41:08;99678.53;;;14.15;96.02
64368;BME280;50692;53.314;-6.300;2023-07-16T01:43:54;99679.81;;;14.21;95.88
64368;BME280;50692;53.314;-6.300;2023-07-16T01:46:40;99675.31;;;14.21;95.87
64368;BME280;50692;53.314;-6.300;2023-07-16T01:49:26;99674.88;;;14.16;95.88
64368;BME280;50692;53.314;-6.300;2023-07-16T01:52:12;99687.91;;;14.19;96.22
64368;BME280;50692;53.314;-6.300;2023-07-16T01:54:57;99676.13;;;14.12;96.18
64368;BME280;50692;53.314;-6.300;2023-07-16T01:57:43;99690.94;;;14.14;95.88
64368;BME280;50692;53.314;-6.300;2023-07-16T02:00:30;99694.56;;;14.13;96.06
64368;BME280;50692;53.314;-6.300;2023-07-16T02:03:16;99695.56;;;14.12;95.65
64368;BME280;50692;53.314;-6.300;2023-07-16T02:06:02;99690.31;;;14.01;95.54
64368;BME280;50692;53.314;-6.300;2023-07-16T02:08:49;99707.28;;;14.10;95.29
64368;BME280;50692;53.314;-6.300;2023-07-16T02:11:34;99714.50;;;14.19;95.45
64368;BME280;50692;53.314;-6.300;2023-07-16T02:14:20;99688.22;;;14.05;95.35
64368;BME280;50692;53.314;-6.300;2023-07-16T02:17:06;99701.56;;;14.14;95.13
64368;BME280;50692;53.314;-6.300;2023-07-16T02:19:53;99695.09;;;14.07;95.48
64368;BME280;50692;53.314;-6.300;2023-07-16T02:22:39;99711.34;;;14.14;95.31
64368;BME280;50692;53.314;-6.300;2023-07-16T02:25:26;99705.59;;;14.09;95.22
64368;BME280;50692;53.314;-6.300;2023-07-16T02:28:12;99722.53;;;14.08;95.60
64368;BME280;50692;53.314;-6.300;2023-07-16T02:30:58;99716.72;;;14.03;95.84
64368;BME280;50692;53.314;-6.300;2023-07-16T02:33:47;99716.03;;;14.01;95.52
64368;BME280;50692;53.314;-6.300;2023-07-16T02:36:32;99717.50;;;13.94;95.89
64368;BME280;50692;53.314;-6.300;2023-07-16T02:39:18;99725.47;;;13.94;96.32
64368;BME280;50692;53.314;-6.300;2023-07-16T02:42:05;99712.59;;;13.78;96.31
64368;BME280;50692;53.314;-6.300;2023-07-16T02:44:51;99704.44;;;13.70;96.64
64368;BME280;50692;53.314;-6.300;2023-07-16T02:47:45;99736.47;;;13.89;96.84
64368;BME280;50692;53.314;-6.300;2023-07-16T02:50:34;99727.44;;;13.80;96.98
64368;BME280;50692;53.314;-6.300;2023-07-16T02:53:22;99755.31;;;13.86;97.03
64368;BME280;50692;53.314;-6.300;2023-07-16T02:56:08;99736.16;;;13.71;97.37
64368;BME280;50692;53.314;-6.300;2023-07-16T02:58:53;99752.19;;;13.81;97.43
64368;BME280;50692;53.314;-6.300;2023-07-16T03:01:39;99719.19;;;13.62;97.46
64368;BME280;50692;53.314;-6.300;2023-07-16T03:04:27;99751.94;;;13.84;97.28
64368;BME280;50692;53.314;-6.300;2023-07-16T03:07:12;99773.19;;;13.84;97.26
64368;BME280;50692;53.314;-6.300;2023-07-16T03:09:58;99765.81;;;13.87;97.44
64368;BME280;50692;53.314;-6.300;2023-07-16T03:12:44;99763.88;;;13.89;97.22
64368;BME280;50692;53.314;-6.300;2023-07-16T03:15:31;99770.03;;;13.90;97.28
64368;BME280;50692;53.314;-6.300;2023-07-16T03:18:18;99783.53;;;13.98;96.84
64368;BME280;50692;53.314;-6.300;2023-07-16T03:21:07;99785.94;;;14.01;96.97
64368;BME280;50692;53.314;-6.300;2023-07-16T03:23:54;99798.41;;;14.01;96.99
64368;BME280;50692;53.314;-6.300;2023-07-16T03:26:39;99798.25;;;14.02;96.98
64368;BME280;50692;53.314;-6.300;2023-07-16T03:29:26;99790.66;;;13.98;96.83
64368;BME280;50692;53.314;-6.300;2023-07-16T03:32:13;99794.41;;;13.95;96.92
64368;BME280;50692;53.314;-6.300;2023-07-16T03:34:59;99808.53;;;13.96;96.92
64368;BME280;50692;53.314;-6.300;2023-07-16T03:37:45;99762.22;;;13.77;97.07
64368;BME280;50692;53.314;-6.300;2023-07-16T03:40:30;99815.88;;;14.03;97.02
64368;BME280;50692;53.314;-6.300;2023-07-16T03:43:17;99824.38;;;13.97;96.79
64368;BME280;50692;53.314;-6.300;2023-07-16T03:46:03;99837.38;;;14.00;96.96
64368;BME280;50692;53.314;-6.300;2023-07-16T03:48:49;99839.69;;;14.05;96.74
64368;BME280;50692;53.314;-6.300;2023-07-16T03:51:34;99842.44;;;14.03;96.95
64368;BME280;50692;53.314;-6.300;2023-07-16T03:54:20;99844.50;;;14.00;97.11
64368;BME280;50692;53.314;-6.300;2023-07-16T03:57:06;99827.63;;;13.89;97.07
64368;BME280;50692;53.314;-6.300;2023-07-16T03:59:53;99835.00;;;13.86;97.62
64368;BME280;50692;53.314;-6.300;2023-07-16T04:02:39;99848.75;;;13.91;97.75
64368;BME280;50692;53.314;-6.300;2023-07-16T04:05:26;99861.22;;;13.90;97.95
64368;BME280;50692;53.314;-6.300;2023-07-16T04:08:12;99821.66;;;13.65;98.08
64368;BME280;50692;53.314;-6.300;2023-07-16T04:10:58;99869.78;;;13.83;97.78
64368;BME280;50692;53.314;-6.300;2023-07-16T04:13:46;99833.81;;;13.56;97.92
64368;BME280;50692;53.314;-6.300;2023-07-16T04:16:31;99876.19;;;13.80;98.11
64368;BME280;50692;53.314;-6.300;2023-07-16T04:19:17;99874.38;;;13.81;98.31
64368;BME280;50692;53.314;-6.300;2023-07-16T04:22:04;99875.44;;;13.78;98.26
64368;BME280;50692;53.314;-6.300;2023-07-16T04:24:50;99878.47;;;13.85;97.86
64368;BME280;50692;53.314;-6.300;2023-07-16T04:27:37;99884.28;;;13.90;97.51
64368;BME280;50692;53.314;-6.300;2023-07-16T04:30:24;99903.09;;;13.98;97.23
64368;BME280;50692;53.314;-6.300;2023-07-16T04:33:09;99887.25;;;13.97;97.07
64368;BME280;50692;53.314;-6.300;2023-07-16T04:35:55;99904.41;;;14.04;96.80
64368;BME280;50692;53.314;-6.300;2023-07-16T04:38:41;99900.06;;;14.03;96.93
64368;BME280;50692;53.314;-6.300;2023-07-16T04:41:27;99909.38;;;14.08;96.70
64368;BME280;50692;53.314;-6.300;2023-07-16T04:44:13;99917.78;;;14.13;96.56
64368;BME280;50692;53.314;-6.300;2023-07-16T04:46:59;99926.75;;;14.12;96.68
64368;BME280;50692;53.314;-6.300;2023-07-16T04:49:45;99926.75;;;14.12;96.72
64368;BME280;50692;53.314;-6.300;2023-07-16T04:52:30;99913.09;;;14.06;96.58
64368;BME280;50692;53.314;-6.300;2023-07-16T04:55:16;99923.50;;;14.09;96.69
64368;BME280;50692;53.314;-6.300;2023-07-16T04:58:02;99930.47;;;14.10;96.06
64368;BME280;50692;53.314;-6.300;2023-07-16T05:00:48;99943.50;;;14.24;96.12
64368;BME280;50692;53.314;-6.300;2023-07-16T05:03:35;99937.97;;;14.16;95.89
64368;BME280;50692;53.314;-6.300;2023-07-16T05:06:22;99937.84;;;14.18;95.90
64368;BME280;50692;53.314;-6.300;2023-07-16T05:09:09;99955.56;;;14.28;95.76
64368;BME280;50692;53.314;-6.300;2023-07-16T05:11:55;99964.88;;;14.34;95.83
64368;BME280;50692;53.314;-6.300;2023-07-16T05:14:47;99965.50;;;14.37;95.81
64368;BME280;50692;53.314;-6.300;2023-07-16T05:17:34;99969.97;;;14.37;95.71
64368;BME280;50692;53.314;-6.300;2023-07-16T05:20:20;99956.81;;;14.24;95.75
64368;BME280;50692;53.314;-6.300;2023-07-16T05:23:05;99965.25;;;14.40;95.51
64368;BME280;50692;53.314;-6.300;2023-07-16T05:25:53;99926.50;;;14.15;95.19
64368;BME280;50692;53.314;-6.300;2023-07-16T05:28:40;99988.34;;;14.51;95.14
64368;BME280;50692;53.314;-6.300;2023-07-16T05:31:25;99991.09;;;14.50;94.75
64368;BME280;50692;53.314;-6.300;2023-07-16T05:34:12;99986.97;;;14.46;94.09
64368;BME280;50692;53.314;-6.300;2023-07-16T05:36:59;99988.66;;;14.47;93.99
64368;BME280;50692;53.314;-6.300;2023-07-16T05:39:45;100001.94;;;14.47;93.79
64368;BME280;50692;53.314;-6.300;2023-07-16T05:42:32;100008.38;;;14.44;93.90
64368;BME280;50692;53.314;-6.300;2023-07-16T05:45:18;100006.94;;;14.40;93.41
64368;BME280;50692;53.314;-6.300;2023-07-16T05:48:05;99997.16;;;14.40;93.19
64368;BME280;50692;53.314;-6.300;2023-07-16T05:50:51;100008.72;;;14.39;93.29
64368;BME280;50692;53.314;-6.300;2023-07-16T05:53:37;100022.06;;;14.51;93.04
64368;BME280;50692;53.314;-6.300;2023-07-16T05:56:22;100004.59;;;14.47;93.09
64368;BME280;50692;53.314;-6.300;2023-07-16T05:59:08;100008.13;;;14.47;93.13
64368;BME280;50692;53.314;-6.300;2023-07-16T06:01:54;100027.59;;;14.59;93.08
64368;BME280;50692;53.314;-6.300;2023-07-16T06:04:43;100038.22;;;14.70;93.06
64368;BME280;50692;53.314;-6.300;2023-07-16T06:07:30;100026.25;;;14.64;93.30
64368;BME280;50692;53.314;-6.300;2023-07-16T06:10:17;100035.31;;;14.73;93.07
64368;BME280;50692;53.314;-6.300;2023-07-16T06:13:02;100039.03;;;14.82;93.02
64368;BME280;50692;53.314;-6.300;2023-07-16T06:15:48;100031.91;;;14.71;92.95
64368;BME280;50692;53.314;-6.300;2023-07-16T06:18:34;100042.22;;;14.76;92.96
64368;BME280;50692;53.314;-6.300;2023-07-16T06:21:20;100057.06;;;14.78;93.00
64368;BME280;50692;53.314;-6.300;2023-07-16T06:24:05;100053.31;;;14.81;92.93
64368;BME280;50692;53.314;-6.300;2023-07-16T06:26:53;100055.69;;;14.95;92.24
64368;BME280;50692;53.314;-6.300;2023-07-16T06:29:40;100063.47;;;14.87;92.24
64368;BME280;50692;53.314;-6.300;2023-07-16T06:32:25;100069.22;;;15.03;91.29
64368;BME280;50692;53.314;-6.300;2023-07-16T06:35:13;100072.41;;;15.18;90.08
64368;BME280;50692;53.314;-6.300;2023-07-16T06:37:58;100072.84;;;15.02;90.73
64368;BME280;50692;53.314;-6.300;2023-07-16T06:40:56;100075.22;;;15.17;90.84
64368;BME280;50692;53.314;-6.300;2023-07-16T06:43:41;100055.94;;;15.24;90.06
64368;BME280;50692;53.314;-6.300;2023-07-16T06:46:27;100084.75;;;15.30;90.18
64368;BME280;50692;53.314;-6.300;2023-07-16T06:49:13;100089.22;;;15.30;89.90
64368;BME280;50692;53.314;-6.300;2023-07-16T06:52:02;100077.16;;;15.15;89.83
64368;BME280;50692;53.314;-6.300;2023-07-16T06:54:49;100088.03;;;15.23;90.04
64368;BME280;50692;53.314;-6.300;2023-07-16T06:57:38;100100.50;;;15.22;90.13
64368;BME280;50692;53.314;-6.300;2023-07-16T07:00:25;100097.72;;;15.24;89.75
64368;BME280;50692;53.314;-6.300;2023-07-16T07:03:11;100108.22;;;15.25;88.96
64368;BME280;50692;53.314;-6.300;2023-07-16T07:05:56;100116.19;;;15.37;89.20
64368;BME280;50692;53.314;-6.300;2023-07-16T07:08:42;100124.78;;;15.40;88.52
64368;BME280;50692;53.314;-6.300;2023-07-16T07:11:28;100127.88;;;15.45;88.19
64368;BME280;50692;53.314;-6.300;2023-07-16T07:14:14;100124.59;;;15.53;88.29
64368;BME280;50692;53.314;-6.300;2023-07-16T07:17:00;100137.28;;;15.60;87.81
64368;BME280;50692;53.314;-6.300;2023-07-16T07:19:45;100146.09;;;15.72;87.85
64368;BME280;50692;53.314;-6.300;2023-07-16T07:22:31;100118.00;;;15.68;86.79
64368;BME280;50692;53.314;-6.300;2023-07-16T07:25:23;100135.91;;;15.77;86.14
64368;BME280;50692;53.314;-6.300;2023-07-16T07:28:09;100136.44;;;15.92;85.48
64368;BME280;50692;53.314;-6.300;2023-07-16T07:30:55;100142.41;;;16.05;85.22
64368;BME280;50692;53.314;-6.300;2023-07-16T07:33:41;100139.28;;;16.00;84.71
64368;BME280;50692;53.314;-6.300;2023-07-16T07:36:28;100149.16;;;16.10;84.16
64368;BME280;50692;53.314;-6.300;2023-07-16T07:39:15;100137.19;;;16.04;83.74
64368;BME280;50692;53.314;-6.300;2023-07-16T07:42:02;100148.34;;;16.09;82.99
64368;BME280;50692;53.314;-6.300;2023-07-16T07:44:49;100159.63;;;16.22;82.35
64368;BME280;50692;53.314;-6.300;2023-07-16T07:47:35;100136.88;;;16.18;82.00
64368;BME280;50692;53.314;-6.300;2023-07-16T07:50:27;100167.44;;;16.35;81.88
64368;BME280;50692;53.314;-6.300;2023-07-16T07:53:16;100165.75;;;16.34;81.20
64368;BME280;50692;53.314;-6.300;2023-07-16T07:56:05;100177.00;;;16.17;81.59
64368;BME280;50692;53.314;-6.300;2023-07-16T07:58:50;100173.94;;;16.21;81.71
64368;BME280;50692;53.314;-6.300;2023-07-16T08:01:36;100171.66;;;16.17;81.77
64368;BME280;50692;53.314;-6.300;2023-07-16T08:04:22;100163.50;;;16.09;81.97
64368;BME280;50692;53.314;-6.300;2023-07-16T08:07:08;100184.75;;;16.20;82.32
64368;BME280;50692;53.314;-6.300;2023-07-16T08:09:56;100190.44;;;16.15;82.41
64368;BME280;50692;53.314;-6.300;2023-07-16T08:12:43;100197.25;;;16.19;82.66
64368;BME280;50692;53.314;-6.300;2023-07-16T08:15:30;100201.09;;;16.15;82.84
64368;BME280;50692;53.314;-6.300;2023-07-16T08:18:16;100184.34;;;16.03;83.18
64368;BME280;50692;53.314;-6.300;2023-07-16T08:21:01;100203.47;;;16.09;83.76
64368;BME280;50692;53.314;-6.300;2023-07-16T08:23:55;100194.03;;;16.04;83.19
64368;BME280;50692;53.314;-6.300;2023-07-16T08:26:41;100203.78;;;16.15;82.46
64368;BME280;50692;53.314;-6.300;2023-07-16T08:29:27;100197.50;;;16.16;82.13
64368;BME280;50692;53.314;-6.300;2023-07-16T08:32:13;100205.88;;;16.33;81.12
64368;BME280;50692;53.314;-6.300;2023-07-16T08:35:01;100202.59;;;16.50;80.06
64368;BME280;50692;53.314;-6.300;2023-07-16T08:37:50;100178.19;;;16.54;79.61
64368;BME280;50692;53.314;-6.300;2023-07-16T08:40:41;100204.50;;;16.90;78.52
64368;BME280;50692;53.314;-6.300;2023-07-16T08:43:28;100209.69;;;17.12;78.07
64368;BME280;50692;53.314;-6.300;2023-07-16T08:46:16;100183.22;;;16.99;76.30
64368;BME280;50692;53.314;-6.300;2023-07-16T08:49:03;100210.06;;;17.48;75.12
64368;BME280;50692;53.314;-6.300;2023-07-16T08:51:51;100217.28;;;17.77;73.32
64368;BME280;50692;53.314;-6.300;2023-07-16T08:54:40;100217.41;;;18.04;72.41
64368;BME280;50692;53.314;-6.300;2023-07-16T08:57:28;100225.44;;;18.24;70.30
64368;BME280;50692;53.314;-6.300;2023-07-16T09:00:15;100223.06;;;18.20;68.74
64368;BME280;50692;53.314;-6.300;2023-07-16T09:03:03;100220.78;;;18.35;69.01
64368;BME280;50692;53.314;-6.300;2023-07-16T09:05:51;100237.22;;;18.50;68.65
64368;BME280;50692;53.314;-6.300;2023-07-16T09:08:44;100219.31;;;18.60;66.14
64368;BME280;50692;53.314;-6.300;2023-07-16T09:11:30;100242.44;;;18.71;65.24
64368;BME280;50692;53.314;-6.300;2023-07-16T09:14:20;100246.84;;;19.00;64.29
64368;BME280;50692;53.314;-6.300;2023-07-16T09:17:07;100244.63;;;18.95;63.63
64368;BME280;50692;53.314;-6.300;2023-07-16T09:19:53;100241.53;;;18.80;63.13
64368;BME280;50692;53.314;-6.300;2023-07-16T09:22:40;100239.13;;;18.87;62.95
64368;BME280;50692;53.314;-6.300;2023-07-16T09:25:29;100240.28;;;18.65;64.62
64368;BME280;50692;53.314;-6.300;2023-07-16T09:28:18;100246.38;;;18.57;66.08
64368;BME280;50692;53.314;-6.300;2023-07-16T09:31:05;100213.47;;;18.18;67.48
64368;BME280;50692;53.314;-6.300;2023-07-16T09:33:56;100249.25;;;18.27;68.07
64368;BME280;50692;53.314;-6.300;2023-07-16T09:36:42;100240.75;;;18.41;68.04
64368;BME280;50692;53.314;-6.300;2023-07-16T09:39:31;100238.91;;;18.51;67.11
64368;BME280;50692;53.314;-6.300;2023-07-16T09:42:17;100241.53;;;18.80;66.29
64368;BME280;50692;53.314;-6.300;2023-07-16T09:45:12;100257.00;;;18.96;65.95
64368;BME280;50692;53.314;-6.300;2023-07-16T09:47:58;100247.22;;;18.77;70.43
64368;BME280;50692;53.314;-6.300;2023-07-16T09:50:52;100279.88;;;18.61;74.98
64368;BME280;50692;53.314;-6.300;2023-07-16T09:53:41;100276.81;;;18.37;74.56
64368;BME280;50692;53.314;-6.300;2023-07-16T09:56:29;100277.69;;;18.28;77.02
64368;BME280;50692;53.314;-6.300;2023-07-16T09:59:21;100254.59;;;18.07;75.77
64368;BME280;50692;53.314;-6.300;2023-07-16T10:02:08;100248.81;;;17.92;75.24
64368;BME280;50692;53.314;-6.300;2023-07-16T10:04:54;100272.31;;;17.89;74.45
64368;BME280;50692;53.314;-6.300;2023-07-16T10:07:43;100260.34;;;17.93;74.34
64368;BME280;50692;53.314;-6.300;2023-07-16T10:13:48;100272.97;;;18.88;73.19
64368;BME280;50692;53.314;-6.300;2023-07-16T10:16:36;100276.75;;;19.23;73.52
64368;BME280;50692;53.314;-6.300;2023-07-16T10:19:25;100270.88;;;19.47;72.45
64368;BME280;50692;53.314;-6.300;2023-07-16T10:22:12;100290.28;;;19.58;72.33
64368;BME280;50692;53.314;-6.300;2023-07-16T10:24:58;100294.28;;;19.17;72.33
64368;BME280;50692;53.314;-6.300;2023-07-16T10:27:45;100301.44;;;18.89;74.12
64368;BME280;50692;53.314;-6.300;2023-07-16T10:30:32;100296.25;;;18.78;75.25
64368;BME280;50692;53.314;-6.300;2023-07-16T10:33:19;100293.56;;;18.78;75.27
64368;BME280;50692;53.314;-6.300;2023-07-16T10:36:08;100279.72;;;18.92;75.62
64368;BME280;50692;53.314;-6.300;2023-07-16T10:39:06;100276.94;;;19.49;74.82
64368;BME280;50692;53.314;-6.300;2023-07-16T10:42:02;100281.94;;;19.89;73.83
64368;BME280;50692;53.314;-6.300;2023-07-16T10:44:51;100297.75;;;20.28;72.32
64368;BME280;50692;53.314;-6.300;2023-07-16T10:47:39;100290.78;;;20.53;70.27
64368;BME280;50692;53.314;-6.300;2023-07-16T10:50:28;100285.09;;;20.20;68.38
64368;BME280;50692;53.314;-6.300;2023-07-16T10:53:13;100285.19;;;19.65;69.12
64368;BME280;50692;53.314;-6.300;2023-07-16T10:55:59;100306.00;;;19.44;70.96
64368;BME280;50692;53.314;-6.300;2023-07-16T10:58:46;100305.75;;;19.09;71.92
64368;BME280;50692;53.314;-6.300;2023-07-16T11:01:33;100309.44;;;18.69;73.16
64368;BME280;50692;53.314;-6.300;2023-07-16T11:04:19;100298.34;;;18.55;73.33
64368;BME280;50692;53.314;-6.300;2023-07-16T11:07:08;100310.19;;;18.52;74.44
64368;BME280;50692;53.314;-6.300;2023-07-16T11:09:58;100287.81;;;18.24;75.65
64368;BME280;50692;53.314;-6.300;2023-07-16T11:12:51;100307.25;;;18.45;75.34
64368;BME280;50692;53.314;-6.300;2023-07-16T11:15:39;100303.41;;;18.48;75.64
64368;BME280;50692;53.314;-6.300;2023-07-16T11:18:26;100287.63;;;18.55;75.93
64368;BME280;50692;53.314;-6.300;2023-07-16T11:21:12;100314.81;;;18.79;75.64
64368;BME280;50692;53.314;-6.300;2023-07-16T11:24:07;100305.34;;;18.94;74.99
64368;BME280;50692;53.314;-6.300;2023-07-16T11:26:54;100284.38;;;18.80;74.16
64368;BME280;50692;53.314;-6.300;2023-07-16T11:29:51;100301.09;;;19.02;72.52
64368;BME280;50692;53.314;-6.300;2023-07-16T11:32:46;100303.75;;;19.11;70.75
64368;BME280;50692;53.314;-6.300;2023-07-16T11:35:34;100308.91;;;19.23;69.97
64368;BME280;50692;53.314;-6.300;2023-07-16T11:38:20;100302.44;;;19.53;70.19
64368;BME280;50692;53.314;-6.300;2023-07-16T11:41:05;100303.63;;;19.78;69.65
64368;BME280;50692;53.314;-6.300;2023-07-16T11:43:51;100291.91;;;20.15;67.35
64368;BME280;50692;53.314;-6.300;2023-07-16T11:46:38;100295.34;;;20.60;66.21
64368;BME280;50692;53.314;-6.300;2023-07-16T11:49:25;100302.63;;;20.94;62.27
64368;BME280;50692;53.314;-6.300;2023-07-16T11:52:10;100300.47;;;20.98;59.06
64368;BME280;50692;53.314;-6.300;2023-07-16T11:54:58;100294.22;;;20.89;57.77
64368;BME280;50692;53.314;-6.300;2023-07-16T11:57:45;100300.47;;;20.98;58.39
64368;BME280;50692;53.314;-6.300;2023-07-16T12:00:31;100288.44;;;21.36;58.79
64368;BME280;50692;53.314;-6.300;2023-07-16T12:03:18;100304.41;;;21.88;56.38
64368;BME280;50692;53.314;-6.300;2023-07-16T12:06:04;100300.69;;;21.81;55.68
64368;BME280;50692;53.314;-6.300;2023-07-16T12:08:49;100279.91;;;21.41;56.11
64368;BME280;50692;53.314;-6.300;2023-07-16T12:11:35;100305.59;;;21.35;56.87
64368;BME280;50692;53.314;-6.300;2023-07-16T12:14:23;100307.28;;;21.36;58.09
64368;BME280;50692;53.314;-6.300;2023-07-16T12:17:09;100241.38;;;21.32;54.94
64368;BME280;50692;53.314;-6.300;2023-07-16T12:19:56;100304.78;;;22.01;53.32
64368;BME280;50692;53.314;-6.300;2023-07-16T12:22:42;100265.44;;;21.92;52.31
64368;BME280;50692;53.314;-6.300;2023-07-16T12:25:34;100281.41;;;22.02;50.68
64368;BME280;50692;53.314;-6.300;2023-07-16T12:28:21;100295.19;;;21.91;49.37
64368;BME280;50692;53.314;-6.300;2023-07-16T12:31:14;100309.41;;;22.25;49.68
64368;BME280;50692;53.314;-6.300;2023-07-16T12:34:01;100311.78;;;22.61;48.69
64368;BME280;50692;53.314;-6.300;2023-07-16T12:36:49;100313.28;;;22.56;47.17
64368;BME280;50692;53.314;-6.300;2023-07-16T12:39:35;100313.78;;;22.43;48.49
64368;BME280;50692;53.314;-6.300;2023-07-16T12:42:21;100310.25;;;22.34;48.54
64368;BME280;50692;53.314;-6.300;2023-07-16T12:45:07;100310.75;;;22.38;48.67
64368;BME280;50692;53.314;-6.300;2023-07-16T12:47:53;100316.66;;;22.49;49.46
64368;BME280;50692;53.314;-6.300;2023-07-16T12:50:39;100314.81;;;22.74;47.77
64368;BME280;50692;53.314;-6.300;2023-07-16T12:53:25;100319.16;;;22.75;46.70
64368;BME280;50692;53.314;-6.300;2023-07-16T12:56:11;100301.47;;;22.97;45.95
64368;BME280;50692;53.314;-6.300;2023-07-16T12:58:57;100315.78;;;23.06;46.02
64368;BME280;50692;53.314;-6.300;2023-07-16T13:01:42;100309.72;;;22.80;44.12
64368;BME280;50692;53.314;-6.300;2023-07-16T13:04:31;100310.94;;;22.61;44.83
64368;BME280;50692;53.314;-6.300;2023-07-16T13:07:16;100304.69;;;22.44;45.43
64368;BME280;50692;53.314;-6.300;2023-07-16T13:10:02;100301.00;;;22.37;45.53
64368;BME280;50692;53.314;-6.300;2023-07-16T13:12:48;100307.88;;;22.96;44.24
64368;BME280;50692;53.314;-6.300;2023-07-16T13:15:35;100313.78;;;23.48;43.58
64368;BME280;50692;53.314;-6.300;2023-07-16T13:18:22;100318.03;;;23.89;43.70
64368;BME280;50692;53.314;-6.300;2023-07-16T13:21:08;100326.97;;;24.13;41.99
64368;BME280;50692;53.314;-6.300;2023-07-16T13:23:55;100319.34;;;24.16;40.81
64368;BME280;50692;53.314;-6.300;2023-07-16T13:26:42;100271.72;;;24.01;40.74
64368;BME280;50692;53.314;-6.300;2023-07-16T13:29:29;100324.53;;;24.49;41.01
64368;BME280;50692;53.314;-6.300;2023-07-16T13:32:15;100322.59;;;24.81;40.65
64368;BME280;50692;53.314;-6.300;2023-07-16T13:35:01;100326.75;;;25.21;40.67
64368;BME280;50692;53.314;-6.300;2023-07-16T13:37:47;100318.19;;;25.18;40.41
64368;BME280;50692;53.314;-6.300;2023-07-16T13:40:33;100307.66;;;25.23;39.01
64368;BME280;50692;53.314;-6.300;2023-07-16T13:43:20;100318.91;;;25.56;38.18
64368;BME280;50692;53.314;-6.300;2023-07-16T13:46:07;100331.78;;;25.39;37.86
64368;BME280;50692;53.314;-6.300;2023-07-16T13:48:52;100307.00;;;24.68;37.22
64368;BME280;50692;53.314;-6.300;2023-07-16T13:51:40;100331.19;;;24.38;38.88
64368;BME280;50692;53.314;-6.300;2023-07-16T13:54:26;100343.59;;;24.02;39.80
64368;BME280;50692;53.314;-6.300;2023-07-16T13:57:12;100349.88;;;23.38;40.60
64368;BME280;50692;53.314;-6.300;2023-07-16T13:59:58;100345.78;;;23.03;42.12
64368;BME280;50692;53.314;-6.300;2023-07-16T14:02:45;100348.97;;;22.90;42.61
64368;BME280;50692;53.314;-6.300;2023-07-16T14:05:30;100349.63;;;22.60;43.36
64368;BME280;50692;53.314;-6.300;2023-07-16T14:08:20;100326.06;;;22.45;43.28
64368;BME280;50692;53.314;-6.300;2023-07-16T14:11:06;100353.34;;;22.50;43.50
64368;BME280;50692;53.314;-6.300;2023-07-16T14:13:54;100355.22;;;23.07;43.39
64368;BME280;50692;53.314;-6.300;2023-07-16T14:16:40;100339.75;;;23.49;42.12
64368;BME280;50692;53.314;-6.300;2023-07-16T14:19:27;100350.88;;;23.45;42.11
64368;BME280;50692;53.314;-6.300;2023-07-16T14:22:15;100350.91;;;23.37;43.21
64368;BME280;50692;53.314;-6.300;2023-07-16T14:25:01;100346.06;;;23.16;43.70
64368;BME280;50692;53.314;-6.300;2023-07-16T14:27:48;100316.63;;;22.74;44.87
64368;BME280;50692;53.314;-6.300;2023-07-16T14:30:33;100347.41;;;23.20;43.78
64368;BME280;50692;53.314;-6.300;2023-07-16T14:33:19;100329.16;;;23.47;43.24